createdAt,value
2019-05-11T00:01:09.075Z,11.70
2019-05-11T00:03:37.069Z,10.63
2019-05-11T00:06:04.992Z,9.70
2019-05-11T00:08:32.849Z,13.00
2019-05-11T00:11:00.813Z,9.87
2019-05-11T00:13:28.708Z,10.37
2019-05-11T00:15:56.659Z,10.33
2019-05-11T00:18:24.582Z,10.90
2019-05-11T00:20:52.518Z,11.13
2019-05-11T00:23:20.495Z,11.10
2019-05-11T00:25:48.497Z,12.47
2019-05-11T00:28:16.469Z,9.97
2019-05-11T00:30:44.452Z,11.23
2019-05-11T00:33:13.518Z,12.00
2019-05-11T00:35:41.417Z,11.27
2019-05-11T00:38:09.365Z,11.70
2019-05-11T00:40:37.280Z,11.57
2019-05-11T00:43:05.211Z,14.37
2019-05-11T00:45:33.098Z,11.73
2019-05-11T00:48:01.015Z,13.57
2019-05-11T00:50:38.771Z,12.63
2019-05-11T00:52:58.722Z,12.90
2019-05-11T00:55:26.665Z,13.57
2019-05-11T00:57:54.579Z,14.93
2019-05-11T01:00:22.591Z,13.43
2019-05-11T01:02:50.498Z,12.70
2019-05-11T01:05:18.416Z,15.55
2019-05-11T01:07:46.317Z,14.60
2019-05-11T01:10:23.625Z,12.37
2019-05-11T01:12:44.091Z,16.52
2019-05-11T01:15:12.074Z,15.73
2019-05-11T01:17:40.030Z,12.90
2019-05-11T01:20:08.802Z,16.25
2019-05-11T01:22:36.693Z,13.13
2019-05-11T01:25:04.787Z,15.23
2019-05-11T01:27:32.621Z,13.05
2019-05-11T01:30:00.477Z,13.20
2019-05-11T01:32:28.374Z,14.95
2019-05-11T01:34:56.246Z,13.40
2019-05-11T01:37:24.150Z,13.50
2019-05-11T01:39:52.075Z,14.33
2019-05-11T01:42:19.992Z,13.05
2019-05-11T01:44:47.854Z,15.18
2019-05-11T01:47:15.775Z,15.28
2019-05-11T01:49:43.681Z,18.70
2019-05-11T01:52:11.580Z,15.70
2019-05-11T01:54:39.473Z,16.27
2019-05-11T01:57:07.437Z,17.23
2019-05-11T01:59:35.323Z,15.32
2019-05-11T02:02:03.366Z,16.60
2019-05-11T02:04:31.344Z,14.65
2019-05-11T02:06:59.223Z,14.47
2019-05-11T02:09:27.119Z,15.32
2019-05-11T02:11:55.378Z,12.73
2019-05-11T02:14:23.232Z,14.10
2019-05-11T02:16:51.205Z,15.20
2019-05-11T02:19:19.057Z,15.70
2019-05-11T02:21:46.960Z,15.63
2019-05-11T02:24:14.811Z,16.80
2019-05-11T02:26:42.702Z,19.05
2019-05-11T02:29:11.522Z,16.70
2019-05-11T02:31:39.390Z,17.60
2019-05-11T02:34:07.271Z,17.75
2019-05-11T02:36:35.142Z,16.07
2019-05-11T02:39:05.690Z,17.10
2019-05-11T02:41:36.731Z,16.82
2019-05-11T02:44:04.009Z,17.92
2019-05-11T02:46:31.883Z,16.82
2019-05-11T02:49:00.050Z,20.10
2019-05-11T02:51:28.862Z,16.15
2019-05-11T02:53:57.906Z,19.00
2019-05-11T02:56:26.210Z,19.00
2019-05-11T02:58:54.199Z,18.45
2019-05-11T03:01:22.184Z,20.55
2019-05-11T03:03:50.050Z,14.80
2019-05-11T03:06:17.891Z,16.40
2019-05-11T03:08:45.772Z,16.50
2019-05-11T03:11:13.625Z,16.97
2019-05-11T03:13:41.513Z,15.70
2019-05-11T03:16:10.581Z,18.02
2019-05-11T03:18:38.510Z,15.75
2019-05-11T03:21:06.428Z,16.97
2019-05-11T03:23:34.416Z,19.45
2019-05-11T03:26:02.276Z,18.10
2019-05-11T03:28:30.124Z,20.72
2019-05-11T03:30:58.021Z,15.08
2019-05-11T03:33:25.934Z,16.45
2019-05-11T03:35:53.758Z,19.30
2019-05-11T03:38:21.758Z,16.73
2019-05-11T03:40:49.640Z,20.12
2019-05-11T03:43:17.537Z,17.92
2019-05-11T03:45:45.424Z,17.80
2019-05-11T03:48:13.286Z,17.45
2019-05-11T03:50:41.552Z,17.45
2019-05-11T03:53:09.415Z,15.55
2019-05-11T03:55:37.315Z,16.57
2019-05-11T03:58:05.239Z,16.10
2019-05-11T04:00:33.116Z,16.60
2019-05-11T04:03:01.007Z,16.73
2019-05-11T04:05:28.944Z,14.38
2019-05-11T04:07:56.912Z,15.65
2019-05-11T04:10:38.381Z,16.00
2019-05-11T04:13:06.284Z,16.70
2019-05-11T04:15:34.236Z,15.95
2019-05-11T04:18:02.138Z,15.43
2019-05-11T04:20:30.163Z,18.52
2019-05-11T04:22:59.069Z,15.63
2019-05-11T04:25:27.027Z,13.80
2019-05-11T04:27:54.921Z,14.25
2019-05-11T04:30:22.839Z,14.87
2019-05-11T04:32:50.741Z,12.90
2019-05-11T04:35:18.696Z,16.50
2019-05-11T04:37:46.725Z,14.53
2019-05-11T04:40:14.655Z,13.65
2019-05-11T04:42:54.527Z,14.60
2019-05-11T04:45:12.457Z,14.18
2019-05-11T04:47:40.405Z,13.00
2019-05-11T04:50:08.485Z,12.15
2019-05-11T04:52:36.309Z,14.10
2019-05-11T04:55:04.556Z,12.33
2019-05-11T04:57:32.407Z,11.48
2019-05-11T05:00:00.348Z,11.45
2019-05-11T05:02:28.210Z,14.93
2019-05-11T05:04:56.108Z,17.00
2019-05-11T05:07:24.049Z,13.20
2019-05-11T05:09:51.977Z,16.52
2019-05-11T05:12:19.852Z,13.48
2019-05-11T05:14:48.673Z,13.30
2019-05-11T05:17:16.553Z,14.78
2019-05-11T05:19:44.492Z,14.83
2019-05-11T05:22:12.364Z,13.85
2019-05-11T05:24:40.299Z,16.50
2019-05-11T05:27:08.289Z,14.38
2019-05-11T05:29:36.195Z,16.50
2019-05-11T05:32:04.147Z,17.87
2019-05-11T05:34:32.074Z,17.85
2019-05-11T05:36:59.987Z,14.68
2019-05-11T05:39:27.925Z,20.40
2019-05-11T05:41:57.413Z,18.60
2019-05-11T05:44:27.900Z,17.20
2019-05-11T05:46:55.921Z,16.52
2019-05-11T05:49:23.782Z,15.23
2019-05-11T05:51:51.718Z,15.25
2019-05-11T05:54:19.713Z,15.80
2019-05-11T05:56:47.720Z,15.63
2019-05-11T05:59:16.741Z,17.10
2019-05-11T06:01:44.701Z,15.30
2019-05-11T06:04:12.619Z,15.50
2019-05-11T06:06:40.567Z,17.73
2019-05-11T06:09:08.578Z,17.60
2019-05-11T06:11:36.586Z,14.83
2019-05-11T06:14:04.665Z,14.38
2019-05-11T06:16:32.581Z,15.30
2019-05-11T06:19:00.601Z,15.53
2019-05-11T06:21:28.740Z,13.00
2019-05-11T06:23:56.708Z,14.90
2019-05-11T06:26:24.662Z,11.73
2019-05-11T06:28:52.652Z,13.30
2019-05-11T06:31:20.649Z,13.28
2019-05-11T06:33:48.673Z,12.60
2019-05-11T06:36:16.583Z,13.05
2019-05-11T06:38:44.531Z,14.65
2019-05-11T06:41:12.535Z,12.47
2019-05-11T06:43:40.427Z,13.48
2019-05-11T06:46:08.469Z,13.50
2019-05-11T06:48:36.393Z,12.80
2019-05-11T06:51:04.373Z,10.73
2019-05-11T06:53:32.336Z,11.73
2019-05-11T06:56:00.342Z,11.53
2019-05-11T06:58:28.276Z,11.97
2019-05-11T07:00:56.220Z,11.67
2019-05-11T07:03:24.240Z,10.65
2019-05-11T07:05:52.222Z,11.88
2019-05-11T07:08:20.258Z,12.20
2019-05-11T07:10:48.127Z,11.40
2019-05-11T07:13:16.081Z,13.83
2019-05-11T07:15:44.060Z,10.40
2019-05-11T07:18:12.114Z,11.03
2019-05-11T07:20:50.122Z,14.20
2019-05-11T07:23:11.372Z,13.03
2019-05-11T07:25:39.410Z,9.80
2019-05-11T07:28:07.530Z,10.00
2019-05-11T07:30:36.385Z,9.15
2019-05-11T07:33:04.423Z,10.10
2019-05-11T07:35:32.830Z,9.53
2019-05-11T07:38:00.864Z,9.27
2019-05-11T07:40:28.836Z,8.80
2019-05-11T07:42:59.008Z,10.00
2019-05-11T07:45:28.316Z,10.08
2019-05-11T07:47:58.775Z,9.88
2019-05-11T07:50:28.351Z,9.83
2019-05-11T07:52:58.787Z,10.05
2019-05-11T07:55:28.239Z,9.20
2019-05-11T07:57:58.623Z,11.00
2019-05-11T08:00:28.034Z,9.70
2019-05-11T08:02:58.420Z,10.05
2019-05-11T08:05:28.348Z,12.00
2019-05-11T08:07:56.690Z,11.43
2019-05-11T08:10:24.714Z,11.00
2019-05-11T08:12:52.693Z,10.75
2019-05-11T08:15:20.584Z,11.47
2019-05-11T08:17:49.014Z,11.57
2019-05-11T08:20:18.663Z,12.10
2019-05-11T08:22:48.177Z,10.30
2019-05-11T08:25:18.193Z,13.70
2019-05-11T08:27:48.577Z,9.90
2019-05-11T08:30:18.814Z,13.60
2019-05-11T08:32:49.310Z,12.27
2019-05-11T08:35:17.976Z,11.08
2019-05-11T08:37:47.883Z,14.43
2019-05-11T08:40:18.399Z,9.00
2019-05-11T08:42:48.243Z,9.58
2019-05-11T08:45:23.718Z,10.77
2019-05-11T08:47:48.504Z,10.28
2019-05-11T08:50:18.542Z,11.65
2019-05-11T08:52:47.937Z,11.03
2019-05-11T08:55:18.754Z,10.23
2019-05-11T08:57:47.983Z,10.93
2019-05-11T09:00:18.205Z,12.60
2019-05-11T09:02:49.822Z,10.73
2019-05-11T09:05:18.515Z,12.47
2019-05-11T09:07:48.328Z,11.90
2019-05-11T09:10:18.602Z,11.55
2019-05-11T09:12:48.705Z,8.60
2019-05-11T09:15:29.909Z,10.18
2019-05-11T09:17:48.613Z,9.93
2019-05-11T09:20:17.995Z,9.48
2019-05-11T09:22:48.513Z,8.50
2019-05-11T09:25:18.378Z,9.08
2019-05-11T09:27:48.257Z,9.88
2019-05-11T09:30:18.469Z,10.20
2019-05-11T09:32:47.822Z,8.40
2019-05-11T09:35:18.658Z,9.17
2019-05-11T09:37:48.240Z,8.40
2019-05-11T09:40:18.252Z,9.30
2019-05-11T09:42:47.901Z,10.40
2019-05-11T09:45:18.426Z,10.25
2019-05-11T09:47:47.747Z,7.70
2019-05-11T09:50:17.839Z,9.40
2019-05-11T09:52:46.054Z,8.38
2019-05-11T09:55:14.359Z,7.53
2019-05-11T09:57:42.432Z,7.57
2019-05-11T10:00:10.997Z,7.10
2019-05-11T10:02:39.067Z,8.10
2019-05-11T10:05:08.367Z,7.30
2019-05-11T10:07:38.097Z,9.67
2019-05-11T10:10:08.934Z,6.20
2019-05-11T10:12:37.985Z,7.60
2019-05-11T10:15:08.365Z,6.35
2019-05-11T10:17:38.300Z,6.60
2019-05-11T10:20:09.146Z,6.60
2019-05-11T10:22:38.463Z,6.30
2019-05-11T10:25:09.155Z,5.93
2019-05-11T10:27:38.311Z,5.70
2019-05-11T10:30:08.435Z,5.72
2019-05-11T10:32:37.905Z,5.65
2019-05-11T10:35:07.974Z,4.70
2019-05-11T10:37:38.893Z,4.30
2019-05-11T10:40:09.507Z,4.03
2019-05-11T10:42:38.026Z,6.60
2019-05-11T10:45:08.845Z,5.00
2019-05-11T10:47:38.254Z,3.70
2019-05-11T10:50:08.551Z,3.23
2019-05-11T10:52:37.879Z,4.00
2019-05-11T10:55:08.632Z,3.90
2019-05-11T10:57:38.730Z,3.30
2019-05-11T11:00:08.799Z,4.62
2019-05-11T11:02:38.445Z,4.40
2019-05-11T11:05:10.253Z,4.50
2019-05-11T11:07:38.605Z,5.58
2019-05-11T11:10:08.846Z,4.05
2019-05-11T11:12:38.455Z,4.35
2019-05-11T11:15:07.976Z,4.60
2019-05-11T11:17:38.205Z,3.90
2019-05-11T11:20:08.643Z,3.55
2019-05-11T11:22:43.488Z,6.47
2019-05-11T11:25:07.949Z,4.10
2019-05-11T11:27:38.033Z,3.23
2019-05-11T11:30:08.943Z,4.23
2019-05-11T11:32:38.336Z,3.37
2019-05-11T11:35:08.520Z,3.55
2019-05-11T11:37:38.735Z,3.50
2019-05-11T11:40:08.406Z,3.20
2019-05-11T11:42:37.761Z,3.87
2019-05-11T11:45:08.015Z,2.83
2019-05-11T11:47:38.353Z,2.57
2019-05-11T11:50:09.126Z,3.05
2019-05-11T11:52:38.273Z,4.17
2019-05-11T11:55:08.308Z,2.70
2019-05-11T11:57:38.016Z,2.30
2019-05-11T12:00:09.146Z,2.77
2019-05-11T12:02:38.760Z,2.40
2019-05-11T12:05:08.801Z,2.50
2019-05-11T12:07:38.658Z,4.70
2019-05-11T12:10:07.961Z,2.30
2019-05-11T12:12:38.441Z,2.50
2019-05-11T12:15:05.863Z,3.15
2019-05-11T12:17:34.000Z,2.23
2019-05-11T12:20:02.062Z,2.70
2019-05-11T12:22:30.157Z,2.93
2019-05-11T12:24:58.892Z,3.55
2019-05-11T12:27:28.705Z,2.80
2019-05-11T12:29:58.163Z,2.97
2019-05-11T12:32:38.298Z,3.00
2019-05-11T12:35:06.149Z,2.63
2019-05-11T12:37:42.965Z,2.87
2019-05-11T12:40:11.452Z,3.00
2019-05-11T12:42:39.455Z,3.65
2019-05-11T12:45:08.519Z,4.20
2019-05-11T12:47:38.514Z,4.40
2019-05-11T12:50:09.281Z,3.30
2019-05-11T12:52:38.340Z,4.40
2019-05-11T12:55:08.691Z,4.05
2019-05-11T12:57:38.624Z,3.33
2019-05-11T13:00:08.799Z,4.03
2019-05-11T13:02:38.805Z,4.83
2019-05-11T13:05:08.818Z,5.40
2019-05-11T13:07:39.277Z,3.80
2019-05-11T13:10:09.010Z,4.10
2019-05-11T13:12:38.603Z,4.35
2019-05-11T13:15:08.526Z,3.35
2019-05-11T13:17:38.399Z,4.75
2019-05-11T13:20:08.649Z,3.27
2019-05-11T13:22:38.198Z,3.20
2019-05-11T13:25:08.601Z,4.85
2019-05-11T13:27:38.598Z,2.65
2019-05-11T13:30:07.967Z,2.80
2019-05-11T13:32:38.427Z,2.70
2019-05-11T13:35:06.229Z,2.58
2019-05-11T13:37:34.219Z,3.20
2019-05-11T13:40:02.263Z,1.82
2019-05-11T13:42:30.314Z,2.55
2019-05-11T13:44:58.514Z,2.52
2019-05-11T13:47:28.307Z,4.20
2019-05-11T13:49:58.262Z,2.92
2019-05-11T13:52:28.514Z,2.50
2019-05-11T13:54:58.313Z,3.27
2019-05-11T13:57:28.486Z,3.00
2019-05-11T13:59:58.000Z,3.05
2019-05-11T14:02:28.409Z,3.00
2019-05-11T14:04:57.890Z,4.78
2019-05-11T14:07:27.598Z,3.08
2019-05-11T14:09:55.657Z,3.00
2019-05-11T14:12:23.819Z,9.73
2019-05-11T14:14:51.777Z,9.95
2019-05-11T14:17:20.360Z,7.15
2019-05-11T14:19:49.450Z,3.08
2019-05-11T14:22:18.936Z,3.60
2019-05-11T14:24:48.303Z,2.90
2019-05-11T14:27:17.828Z,2.50
2019-05-11T14:29:48.074Z,2.98
2019-05-11T14:32:17.688Z,6.75
2019-05-11T14:34:48.346Z,5.30
2019-05-11T14:37:18.043Z,3.37
2019-05-11T14:39:48.142Z,3.67
2019-05-11T14:42:21.667Z,2.47
2019-05-11T14:44:48.247Z,3.07
2019-05-11T14:47:18.046Z,3.40
2019-05-11T14:49:49.237Z,3.60
2019-05-11T14:52:18.743Z,3.07
2019-05-11T14:54:48.548Z,3.52
2019-05-11T14:57:18.680Z,14.33
2019-05-11T14:59:48.259Z,11.97
2019-05-11T15:02:34.852Z,8.30
2019-05-11T15:05:02.969Z,7.20
2019-05-11T15:07:31.043Z,11.50
2019-05-11T15:09:59.128Z,6.83
2019-05-11T15:12:28.733Z,29.27
2019-05-11T15:14:59.032Z,14.23
2019-05-11T15:17:28.182Z,6.92
2019-05-11T15:19:58.042Z,7.35
2019-05-11T15:22:28.585Z,20.57
2019-05-11T15:24:58.544Z,34.20
2019-05-11T15:27:26.076Z,9.07
2019-05-11T15:29:54.040Z,12.95
2019-05-11T15:32:22.084Z,8.97
2019-05-11T15:34:50.218Z,5.10
2019-05-11T15:37:18.234Z,5.60
2019-05-11T15:39:48.246Z,8.15
2019-05-11T15:42:19.528Z,7.67
2019-05-11T15:44:48.321Z,8.67
2019-05-11T15:47:16.171Z,8.03
2019-05-11T15:49:44.332Z,6.85
2019-05-11T15:52:12.378Z,5.83
2019-05-11T15:54:40.454Z,6.40
2019-05-11T15:57:08.546Z,8.55
2019-05-11T15:59:38.831Z,8.83
2019-05-11T16:02:08.639Z,8.38
2019-05-11T16:04:38.216Z,8.73
2019-05-11T16:07:08.236Z,6.60
2019-05-11T16:09:38.076Z,9.75
2019-05-11T16:12:06.211Z,5.12
2019-05-11T16:14:34.274Z,6.45
2019-05-11T16:17:02.243Z,7.03
2019-05-11T16:19:30.432Z,7.90
2019-05-11T16:21:58.463Z,5.22
2019-05-11T16:24:26.578Z,7.28
2019-05-11T16:26:54.547Z,7.45
2019-05-11T16:29:23.787Z,7.70
2019-05-11T16:31:51.805Z,4.92
2019-05-11T16:34:19.784Z,6.08
2019-05-11T16:36:48.058Z,6.28
2019-05-11T16:39:18.500Z,5.42
2019-05-11T16:41:48.518Z,6.83
2019-05-11T16:44:18.365Z,5.97
2019-05-11T16:46:50.979Z,6.20
2019-05-11T16:49:28.480Z,5.87
2019-05-11T16:51:49.395Z,5.42
2019-05-11T16:54:17.462Z,6.42
2019-05-11T16:56:45.511Z,5.00
2019-05-11T16:59:13.579Z,6.08
2019-05-11T17:01:41.970Z,3.85
2019-05-11T17:04:09.947Z,4.35
2019-05-11T17:06:38.747Z,8.00
2019-05-11T17:09:08.953Z,3.90
2019-05-11T17:11:38.357Z,4.33
2019-05-11T17:14:08.356Z,4.03
2019-05-11T17:16:38.716Z,4.25
2019-05-11T17:19:07.870Z,5.12
2019-05-11T17:21:38.180Z,4.37
2019-05-11T17:24:06.561Z,4.78
2019-05-11T17:26:34.609Z,2.72
2019-05-11T17:29:02.652Z,3.52
2019-05-11T17:31:30.811Z,3.20
2019-05-11T17:33:59.007Z,5.45
2019-05-11T17:36:39.387Z,4.35
2019-05-11T17:39:07.737Z,4.30
2019-05-11T17:41:38.431Z,4.67
2019-05-11T17:44:07.969Z,5.33
2019-05-11T17:46:38.437Z,6.85
2019-05-11T17:49:07.903Z,2.92
2019-05-11T17:51:37.938Z,4.95
2019-05-11T17:54:07.898Z,3.83
2019-05-11T17:56:38.560Z,4.03
2019-05-11T17:59:08.093Z,5.30
2019-05-11T18:01:36.021Z,4.50
2019-05-11T18:04:07.975Z,3.72
2019-05-11T18:06:38.296Z,5.45
2019-05-11T18:09:08.446Z,5.00
2019-05-11T18:11:38.054Z,3.95
2019-05-11T18:14:08.384Z,4.60
2019-05-11T18:16:36.492Z,3.67
2019-05-11T18:19:04.627Z,6.40
2019-05-11T18:21:32.630Z,4.53
2019-05-11T18:24:00.823Z,4.42
2019-05-11T18:26:28.948Z,4.25
2019-05-11T18:28:58.644Z,4.75
2019-05-11T18:31:28.537Z,4.70
2019-05-11T18:33:58.091Z,3.80
2019-05-11T18:36:28.785Z,5.08
2019-05-11T18:38:56.295Z,4.78
2019-05-11T18:41:24.741Z,4.40
2019-05-11T18:43:52.810Z,5.53
2019-05-11T18:46:21.028Z,5.45
2019-05-11T18:48:51.068Z,4.85
2019-05-11T18:51:19.395Z,5.90
2019-05-11T18:53:48.304Z,4.75
2019-05-11T18:56:20.260Z,4.87
2019-05-11T18:58:48.245Z,5.35
2019-05-11T19:01:17.846Z,4.72
2019-05-11T19:03:47.897Z,5.05
2019-05-11T19:06:18.398Z,5.10
2019-05-11T19:08:47.858Z,4.65
2019-05-11T19:11:18.292Z,6.05
2019-05-11T19:13:47.801Z,4.50
2019-05-11T19:16:19.552Z,5.12
2019-05-11T19:18:48.768Z,5.10
2019-05-11T19:21:18.017Z,5.50
2019-05-11T19:23:48.603Z,5.70
2019-05-11T19:26:17.832Z,6.70
2019-05-11T19:28:46.203Z,6.28
2019-05-11T19:31:15.285Z,6.20
2019-05-11T19:33:45.676Z,7.80
2019-05-11T19:36:13.954Z,7.58
2019-05-11T19:38:41.991Z,6.25
2019-05-11T19:41:10.110Z,9.53
2019-05-11T19:43:38.320Z,6.95
2019-05-11T19:46:08.661Z,8.48
2019-05-11T19:48:38.477Z,9.63
2019-05-11T19:51:09.138Z,9.25
2019-05-11T19:53:38.442Z,8.98
2019-05-11T19:56:07.796Z,9.88
2019-05-11T19:58:38.069Z,9.78
2019-05-11T20:01:08.482Z,10.00
2019-05-11T20:03:37.865Z,11.22
2019-05-11T20:06:08.542Z,12.35
2019-05-11T20:08:35.941Z,12.28
2019-05-11T20:11:03.929Z,10.75
2019-05-11T20:13:32.071Z,11.50
2019-05-11T20:16:00.210Z,11.45
2019-05-11T20:18:28.911Z,10.85
2019-05-11T20:20:57.349Z,9.70
2019-05-11T20:23:25.366Z,10.53
2019-05-11T20:25:54.609Z,10.28
2019-05-11T20:28:22.679Z,10.72
2019-05-11T20:30:50.828Z,10.32
2019-05-11T20:33:19.125Z,10.65
2019-05-11T20:35:48.768Z,9.95
2019-05-11T20:38:18.718Z,8.58
2019-05-11T20:40:48.424Z,10.43
2019-05-11T20:43:18.540Z,8.98
2019-05-11T20:45:48.586Z,11.97
2019-05-11T20:48:18.479Z,10.50
2019-05-11T20:50:48.361Z,10.23
2019-05-11T20:53:18.028Z,9.00
2019-05-11T20:55:47.936Z,14.35
2019-05-11T20:58:18.820Z,9.30
2019-05-11T21:00:46.056Z,12.13
2019-05-11T21:03:14.110Z,9.55
2019-05-11T21:05:42.017Z,11.45
2019-05-11T21:08:10.905Z,11.15
2019-05-11T21:10:39.902Z,14.28
2019-05-11T21:13:08.570Z,13.55
2019-05-11T21:15:38.493Z,11.45
2019-05-11T21:18:08.078Z,12.15
2019-05-11T21:20:38.013Z,12.90
2019-05-11T21:23:08.263Z,12.30
2019-05-11T21:25:37.799Z,12.37
2019-05-11T21:28:08.308Z,16.45
2019-05-11T21:30:39.660Z,13.80
2019-05-11T21:33:08.476Z,14.68
2019-05-11T21:35:38.454Z,15.13
2019-05-11T21:38:06.151Z,14.80
2019-05-11T21:40:34.215Z,17.45
2019-05-11T21:43:02.254Z,16.27
2019-05-11T21:45:30.225Z,20.15
2019-05-11T21:47:58.265Z,14.80
2019-05-11T21:50:27.968Z,18.55
2019-05-11T21:52:56.099Z,16.85
2019-05-11T21:55:24.097Z,17.27
2019-05-11T21:57:52.152Z,14.55
2019-05-11T22:00:21.003Z,18.07
2019-05-11T22:02:50.865Z,17.15
2019-05-11T22:05:20.840Z,17.40
2019-05-11T22:07:54.978Z,16.20
2019-05-11T22:10:23.033Z,15.88
2019-05-11T22:12:51.093Z,16.35
2019-05-11T22:15:19.188Z,19.17
2019-05-11T22:17:48.037Z,18.12
2019-05-11T22:20:18.441Z,18.60
2019-05-11T22:22:47.660Z,21.37
2019-05-11T22:25:18.037Z,15.38
2019-05-11T22:27:45.665Z,16.82
2019-05-11T22:30:14.887Z,15.95
2019-05-11T22:32:42.860Z,16.67
2019-05-11T22:35:10.849Z,17.98
2019-05-11T22:37:40.029Z,16.10
2019-05-11T22:40:09.008Z,17.05
2019-05-11T22:42:37.066Z,19.55
2019-05-11T22:45:08.508Z,18.35
2019-05-11T22:47:38.829Z,16.55
2019-05-11T22:50:07.876Z,15.43
2019-05-11T22:52:37.345Z,18.30
2019-05-11T22:55:08.884Z,17.48
2019-05-11T22:57:38.085Z,19.42
2019-05-11T23:00:08.218Z,14.93
2019-05-11T23:02:38.361Z,17.00
2019-05-11T23:05:08.581Z,18.60
2019-05-11T23:07:37.722Z,19.15
2019-05-11T23:10:08.625Z,19.00
2019-05-11T23:12:38.389Z,22.50
2019-05-11T23:15:12.099Z,20.27
2019-05-11T23:17:40.689Z,20.68
2019-05-11T23:20:09.890Z,20.72
2019-05-11T23:22:56.051Z,16.73
2019-05-11T23:25:18.757Z,22.20
2019-05-11T23:27:48.642Z,19.50
2019-05-11T23:30:19.631Z,21.23
2019-05-11T23:32:49.012Z,16.85
2019-05-11T23:35:38.195Z,20.23
2019-05-11T23:38:06.232Z,14.30
2019-05-11T23:40:34.155Z,15.15
2019-05-11T23:43:02.117Z,19.48
2019-05-11T23:45:29.999Z,15.50
2019-05-11T23:47:58.899Z,15.00
2019-05-11T23:50:28.127Z,12.98
2019-05-11T23:53:06.231Z,11.88
2019-05-11T23:55:28.727Z,14.03
2019-05-11T23:57:57.620Z,16.93
